Wolf Creek, MT

12:25 AM MDT on May 29, 2015 (GMT -0600)
Craig, Montana | | Change Station
CLOSE
Current Station
Personal Weather Station
Location: Craig, MT
Elevation: 3566 ft
Nearby Weather Stations

Elev 3566 ft 47.13 °N, 111.90 °W | Updated 17 seconds ago

Overcast
Overcast
46.8 °F
Feels Like 47 °F
N
0.1
Wind Variable Wind from North
Gusts 1.6 mph

Today
High -- | Low -- °F
--% Chance of Precip.
Yesterday
High -- | Low -- °F
Precip. -- in
5:38 AM 9:12 PM
Waxing Gibbous, 81% visible
Pressure 30.33 in
Visibility 10.0 miles
Clouds Mostly Cloudy 1800 ft
Overcast 3100 ft
Windchill 47 °F
Dew Point 46 °F
Humidity 99%
Rainfall 0.00 in
Snow Depth Not available.
UV 0 out of 12
Pollen 6.10 out of 12
Air Quality Not available.
Flu Activity Sporadic
METAR KHLN 290553Z AUTO 34005KT 10SM BKN018 OVC031 10/06 A3031 RMK AO2 SLP271 T01000061 10144 20100 50008

More Conditions Fewer Conditions

Pressure 30.33 in
Visibility 10.0 miles
Clouds Mostly Cloudy 1800 ft
Overcast 3100 ft
Windchill 47 °F
Dew Point 46 °F
Humidity 99%
Rainfall 0.00 in
Snow Depth Not available.
UV 0 out of 12
Pollen 6.10 out of 12
Air Quality Not available.
Flu Activity Sporadic
METAR KHLN 290553Z AUTO 34005KT 10SM BKN018 OVC031 10/06 A3031 RMK AO2 SLP271 T01000061 10144 20100 50008

More Conditions Fewer Conditions

10-Day Weather Forecast

Almanac

Astronomy

May. 29, 2015 Rise Set
Actual Time
Civil Twilight
Nautical Twilight
Astronomical Twilight
Moon
Length of Visible Light
Length of Day
Tomorrow will be .
, % of the Moon is Illuminated

Today's Extremes

State Highs State Lows

Community

WunderPhotos

Upload Photos

1,825,215 photos uploaded!

WunderBlogs® & News

Nearby

Air Quality

  Air Quality AQ Index Pollutant
Not available.

Snow Depth

Station Depth Elevation

Earthquake Activity

City Distance Mag. Time & Date
Minimum magnitude displayed is 2.5.

Coastal Water Temperatures

Place Temperature

Stations

Nearby Weather Stations

Station Location Temp. Windchill Dew Point Humidity Wind Precip. Elev Updated Type